sensor_id;sensor_type;location;lat;lon;timestamp;P1;durP1;ratioP1;P2;durP2;ratioP2
56269;SDS011;42176;43.240;27.880;2023-11-22T00:00:51;6.17;;;3.70;;
56269;SDS011;42176;43.240;27.880;2023-11-22T00:02:52;7.77;;;2.57;;
56269;SDS011;42176;43.240;27.880;2023-11-22T00:04:52;4.33;;;2.90;;
56269;SDS011;42176;43.240;27.880;2023-11-22T00:06:53;4.30;;;3.00;;
56269;SDS011;42176;43.240;27.880;2023-11-22T00:08:53;7.37;;;3.40;;
56269;SDS011;42176;43.240;27.880;2023-11-22T00:10:54;5.80;;;3.93;;
56269;SDS011;42176;43.240;27.880;2023-11-22T00:12:54;6.15;;;3.53;;
56269;SDS011;42176;43.240;27.880;2023-11-22T00:14:55;3.10;;;2.50;;
56269;SDS011;42176;43.240;27.880;2023-11-22T00:16:56;3.63;;;2.67;;
56269;SDS011;42176;43.240;27.880;2023-11-22T00:18:57;5.18;;;3.03;;
56269;SDS011;42176;43.240;27.880;2023-11-22T00:20:57;5.47;;;3.43;;
56269;SDS011;42176;43.240;27.880;2023-11-22T00:25:00;4.00;;;2.88;;
56269;SDS011;42176;43.240;27.880;2023-11-22T00:27:01;5.30;;;3.25;;
56269;SDS011;42176;43.240;27.880;2023-11-22T00:29:02;4.87;;;2.93;;
56269;SDS011;42176;43.240;27.880;2023-11-22T00:31:02;6.97;;;3.07;;
56269;SDS011;42176;43.240;27.880;2023-11-22T00:33:03;8.20;;;3.70;;
56269;SDS011;42176;43.240;27.880;2023-11-22T00:35:04;3.90;;;3.10;;
56269;SDS011;42176;43.240;27.880;2023-11-22T00:37:05;5.70;;;3.60;;
56269;SDS011;42176;43.240;27.880;2023-11-22T00:39:06;7.20;;;3.80;;
56269;SDS011;42176;43.240;27.880;2023-11-22T00:41:06;7.73;;;3.93;;
56269;SDS011;42176;43.240;27.880;2023-11-22T00:43:07;15.45;;;3.92;;
56269;SDS011;42176;43.240;27.880;2023-11-22T00:45:09;9.83;;;3.27;;
56269;SDS011;42176;43.240;27.880;2023-11-22T00:47:10;4.60;;;3.60;;
56269;SDS011;42176;43.240;27.880;2023-11-22T00:49:10;3.03;;;2.33;;
56269;SDS011;42176;43.240;27.880;2023-11-22T00:51:11;8.33;;;3.17;;
56269;SDS011;42176;43.240;27.880;2023-11-22T00:53:12;7.50;;;3.58;;
56269;SDS011;42176;43.240;27.880;2023-11-22T00:55:14;8.15;;;3.13;;
56269;SDS011;42176;43.240;27.880;2023-11-22T00:57:15;5.67;;;2.93;;
56269;SDS011;42176;43.240;27.880;2023-11-22T00:59:16;5.07;;;3.00;;
56269;SDS011;42176;43.240;27.880;2023-11-22T01:01:16;4.50;;;2.70;;
56269;SDS011;42176;43.240;27.880;2023-11-22T01:05:18;7.03;;;3.22;;
56269;SDS011;42176;43.240;27.880;2023-11-22T01:07:19;6.83;;;2.60;;
56269;SDS011;42176;43.240;27.880;2023-11-22T01:09:19;5.73;;;2.97;;
56269;SDS011;42176;43.240;27.880;2023-11-22T01:11:21;6.40;;;3.15;;
56269;SDS011;42176;43.240;27.880;2023-11-22T01:13:22;3.87;;;2.90;;
56269;SDS011;42176;43.240;27.880;2023-11-22T01:15:22;2.23;;;1.80;;
56269;SDS011;42176;43.240;27.880;2023-11-22T01:17:23;10.37;;;3.57;;
56269;SDS011;42176;43.240;27.880;2023-11-22T01:19:24;7.80;;;3.97;;
56269;SDS011;42176;43.240;27.880;2023-11-22T01:21:26;7.75;;;3.92;;
56269;SDS011;42176;43.240;27.880;2023-11-22T01:23:26;6.20;;;3.90;;
56269;SDS011;42176;43.240;27.880;2023-11-22T01:25:28;8.65;;;4.60;;
56269;SDS011;42176;43.240;27.880;2023-11-22T01:27:28;6.27;;;3.20;;
56269;SDS011;42176;43.240;27.880;2023-11-22T01:29:29;10.80;;;3.33;;
56269;SDS011;42176;43.240;27.880;2023-11-22T01:31:29;12.40;;;3.40;;
56269;SDS011;42176;43.240;27.880;2023-11-22T01:33:30;4.77;;;3.10;;
56269;SDS011;42176;43.240;27.880;2023-11-22T01:35:32;6.72;;;3.63;;
56269;SDS011;42176;43.240;27.880;2023-11-22T01:37:34;6.07;;;3.85;;
56269;SDS011;42176;43.240;27.880;2023-11-22T01:39:34;6.10;;;3.90;;
56269;SDS011;42176;43.240;27.880;2023-11-22T01:41:35;10.37;;;3.80;;
56269;SDS011;42176;43.240;27.880;2023-11-22T01:43:35;8.80;;;2.90;;
56269;SDS011;42176;43.240;27.880;2023-11-22T01:45:36;3.53;;;2.67;;
56269;SDS011;42176;43.240;27.880;2023-11-22T01:47:37;4.63;;;3.20;;
56269;SDS011;42176;43.240;27.880;2023-11-22T01:49:38;5.65;;;2.92;;
56269;SDS011;42176;43.240;27.880;2023-11-22T01:51:38;5.03;;;3.27;;
56269;SDS011;42176;43.240;27.880;2023-11-22T01:53:40;4.28;;;2.90;;
56269;SDS011;42176;43.240;27.880;2023-11-22T01:57:46;11.80;;;3.40;;
56269;SDS011;42176;43.240;27.880;2023-11-22T01:59:47;3.43;;;2.47;;
56269;SDS011;42176;43.240;27.880;2023-11-22T02:01:48;6.97;;;4.00;;
56269;SDS011;42176;43.240;27.880;2023-11-22T02:03:49;5.47;;;3.28;;
56269;SDS011;42176;43.240;27.880;2023-11-22T02:05:52;5.85;;;3.50;;
56269;SDS011;42176;43.240;27.880;2023-11-22T02:07:54;6.60;;;3.17;;
56269;SDS011;42176;43.240;27.880;2023-11-22T02:09:55;6.47;;;3.45;;
56269;SDS011;42176;43.240;27.880;2023-11-22T02:11:57;3.67;;;3.03;;
56269;SDS011;42176;43.240;27.880;2023-11-22T02:13:57;4.03;;;2.05;;
56269;SDS011;42176;43.240;27.880;2023-11-22T02:15:58;4.93;;;2.63;;
56269;SDS011;42176;43.240;27.880;2023-11-22T02:18:01;4.22;;;2.78;;
56269;SDS011;42176;43.240;27.880;2023-11-22T02:22:09;7.18;;;3.50;;
56269;SDS011;42176;43.240;27.880;2023-11-22T02:24:10;4.50;;;3.10;;
56269;SDS011;42176;43.240;27.880;2023-11-22T02:26:11;5.43;;;3.22;;
56269;SDS011;42176;43.240;27.880;2023-11-22T02:28:12;5.33;;;2.90;;
56269;SDS011;42176;43.240;27.880;2023-11-22T02:30:13;6.20;;;3.60;;
56269;SDS011;42176;43.240;27.880;2023-11-22T02:32:13;4.27;;;3.07;;
56269;SDS011;42176;43.240;27.880;2023-11-22T02:34:14;4.50;;;3.03;;
56269;SDS011;42176;43.240;27.880;2023-11-22T02:36:15;6.68;;;3.22;;
56269;SDS011;42176;43.240;27.880;2023-11-22T02:38:16;4.97;;;3.07;;
56269;SDS011;42176;43.240;27.880;2023-11-22T02:42:22;4.97;;;3.15;;
56269;SDS011;42176;43.240;27.880;2023-11-22T02:44:23;4.53;;;2.65;;
56269;SDS011;42176;43.240;27.880;2023-11-22T02:46:23;7.50;;;3.07;;
56269;SDS011;42176;43.240;27.880;2023-11-22T02:48:24;5.47;;;3.57;;
56269;SDS011;42176;43.240;27.880;2023-11-22T02:50:24;7.80;;;2.87;;
56269;SDS011;42176;43.240;27.880;2023-11-22T02:52:25;7.87;;;3.17;;
56269;SDS011;42176;43.240;27.880;2023-11-22T02:54:26;5.30;;;3.33;;
56269;SDS011;42176;43.240;27.880;2023-11-22T02:56:27;4.23;;;3.33;;
56269;SDS011;42176;43.240;27.880;2023-11-22T02:58:30;4.37;;;3.37;;
56269;SDS011;42176;43.240;27.880;2023-11-22T03:00:31;6.55;;;2.88;;
56269;SDS011;42176;43.240;27.880;2023-11-22T03:02:34;6.28;;;3.00;;
56269;SDS011;42176;43.240;27.880;2023-11-22T03:04:35;8.40;;;2.80;;
56269;SDS011;42176;43.240;27.880;2023-11-22T03:06:36;9.77;;;3.60;;
56269;SDS011;42176;43.240;27.880;2023-11-22T03:08:36;6.23;;;3.43;;
56269;SDS011;42176;43.240;27.880;2023-11-22T03:10:37;6.37;;;3.93;;
56269;SDS011;42176;43.240;27.880;2023-11-22T03:12:38;5.13;;;3.77;;
56269;SDS011;42176;43.240;27.880;2023-11-22T03:14:38;3.67;;;3.30;;
56269;SDS011;42176;43.240;27.880;2023-11-22T03:16:39;3.77;;;3.40;;
56269;SDS011;42176;43.240;27.880;2023-11-22T03:18:40;7.13;;;3.90;;
56269;SDS011;42176;43.240;27.880;2023-11-22T03:20:41;8.32;;;4.35;;
56269;SDS011;42176;43.240;27.880;2023-11-22T03:22:43;8.07;;;4.20;;
56269;SDS011;42176;43.240;27.880;2023-11-22T03:24:49;6.93;;;3.60;;
56269;SDS011;42176;43.240;27.880;2023-11-22T03:26:50;9.57;;;5.43;;
56269;SDS011;42176;43.240;27.880;2023-11-22T03:28:50;6.63;;;3.47;;
56269;SDS011;42176;43.240;27.880;2023-11-22T03:30:51;5.03;;;3.70;;
56269;SDS011;42176;43.240;27.880;2023-11-22T03:32:51;10.07;;;3.73;;
56269;SDS011;42176;43.240;27.880;2023-11-22T03:34:52;13.20;;;6.40;;
56269;SDS011;42176;43.240;27.880;2023-11-22T03:36:52;8.13;;;4.77;;
56269;SDS011;42176;43.240;27.880;2023-11-22T03:38:53;6.30;;;5.43;;
56269;SDS011;42176;43.240;27.880;2023-11-22T03:40:53;7.17;;;4.07;;
56269;SDS011;42176;43.240;27.880;2023-11-22T03:42:54;8.03;;;3.80;;
56269;SDS011;42176;43.240;27.880;2023-11-22T03:44:55;5.73;;;3.37;;
56269;SDS011;42176;43.240;27.880;2023-11-22T03:46:55;3.97;;;3.37;;
56269;SDS011;42176;43.240;27.880;2023-11-22T03:48:56;4.13;;;3.37;;
56269;SDS011;42176;43.240;27.880;2023-11-22T03:50:56;5.53;;;3.37;;
56269;SDS011;42176;43.240;27.880;2023-11-22T03:52:57;5.03;;;3.57;;
56269;SDS011;42176;43.240;27.880;2023-11-22T03:54:58;8.83;;;3.97;;
56269;SDS011;42176;43.240;27.880;2023-11-22T03:56:58;7.90;;;3.57;;
56269;SDS011;42176;43.240;27.880;2023-11-22T03:58:59;4.33;;;3.50;;
56269;SDS011;42176;43.240;27.880;2023-11-22T04:00:59;6.43;;;3.77;;
56269;SDS011;42176;43.240;27.880;2023-11-22T04:03:02;7.93;;;3.80;;
56269;SDS011;42176;43.240;27.880;2023-11-22T04:05:03;12.53;;;4.70;;
56269;SDS011;42176;43.240;27.880;2023-11-22T04:07:04;7.23;;;4.63;;
56269;SDS011;42176;43.240;27.880;2023-11-22T04:09:04;9.13;;;4.40;;
56269;SDS011;42176;43.240;27.880;2023-11-22T04:11:05;9.90;;;4.23;;
56269;SDS011;42176;43.240;27.880;2023-11-22T04:13:06;5.70;;;3.70;;
56269;SDS011;42176;43.240;27.880;2023-11-22T04:15:06;5.47;;;3.90;;
56269;SDS011;42176;43.240;27.880;2023-11-22T04:17:10;9.02;;;3.70;;
56269;SDS011;42176;43.240;27.880;2023-11-22T04:19:10;9.67;;;4.10;;
56269;SDS011;42176;43.240;27.880;2023-11-22T04:21:11;4.80;;;2.67;;
56269;SDS011;42176;43.240;27.880;2023-11-22T04:23:11;7.30;;;3.40;;
56269;SDS011;42176;43.240;27.880;2023-11-22T04:25:13;7.70;;;3.47;;
56269;SDS011;42176;43.240;27.880;2023-11-22T04:27:14;8.17;;;3.53;;
56269;SDS011;42176;43.240;27.880;2023-11-22T04:29:15;6.67;;;3.97;;
56269;SDS011;42176;43.240;27.880;2023-11-22T04:31:16;7.13;;;4.53;;
56269;SDS011;42176;43.240;27.880;2023-11-22T04:33:17;4.50;;;3.97;;
56269;SDS011;42176;43.240;27.880;2023-11-22T04:35:18;7.25;;;4.10;;
56269;SDS011;42176;43.240;27.880;2023-11-22T04:37:19;6.90;;;4.47;;
56269;SDS011;42176;43.240;27.880;2023-11-22T04:39:19;8.07;;;4.73;;
56269;SDS011;42176;43.240;27.880;2023-11-22T04:41:20;6.82;;;4.78;;
56269;SDS011;42176;43.240;27.880;2023-11-22T04:45:23;9.57;;;4.80;;
56269;SDS011;42176;43.240;27.880;2023-11-22T04:47:24;11.87;;;5.27;;
56269;SDS011;42176;43.240;27.880;2023-11-22T04:49:26;10.68;;;5.07;;
56269;SDS011;42176;43.240;27.880;2023-11-22T04:51:26;7.70;;;5.18;;
56269;SDS011;42176;43.240;27.880;2023-11-22T04:53:29;8.75;;;5.40;;
56269;SDS011;42176;43.240;27.880;2023-11-22T04:55:29;10.63;;;4.73;;
56269;SDS011;42176;43.240;27.880;2023-11-22T04:57:30;7.70;;;4.97;;
56269;SDS011;42176;43.240;27.880;2023-11-22T04:59:31;6.50;;;4.27;;
56269;SDS011;42176;43.240;27.880;2023-11-22T05:01:32;10.00;;;6.00;;
56269;SDS011;42176;43.240;27.880;2023-11-22T05:03:33;11.13;;;6.00;;
56269;SDS011;42176;43.240;27.880;2023-11-22T05:05:33;14.87;;;5.83;;
56269;SDS011;42176;43.240;27.880;2023-11-22T05:07:34;7.20;;;5.20;;
56269;SDS011;42176;43.240;27.880;2023-11-22T05:09:34;8.50;;;4.80;;
56269;SDS011;42176;43.240;27.880;2023-11-22T05:11:35;7.93;;;5.83;;
56269;SDS011;42176;43.240;27.880;2023-11-22T05:13:35;7.40;;;5.50;;
56269;SDS011;42176;43.240;27.880;2023-11-22T05:15:36;10.33;;;5.20;;
56269;SDS011;42176;43.240;27.880;2023-11-22T05:17:37;11.17;;;6.63;;
56269;SDS011;42176;43.240;27.880;2023-11-22T05:19:37;20.08;;;8.55;;
56269;SDS011;42176;43.240;27.880;2023-11-22T05:21:38;24.48;;;8.80;;
56269;SDS011;42176;43.240;27.880;2023-11-22T05:23:39;15.07;;;9.97;;
56269;SDS011;42176;43.240;27.880;2023-11-22T05:25:39;13.90;;;8.37;;
56269;SDS011;42176;43.240;27.880;2023-11-22T05:27:40;13.30;;;7.60;;
56269;SDS011;42176;43.240;27.880;2023-11-22T05:29:40;19.73;;;6.57;;
56269;SDS011;42176;43.240;27.880;2023-11-22T05:31:42;15.02;;;6.93;;
56269;SDS011;42176;43.240;27.880;2023-11-22T05:33:43;18.03;;;6.93;;
56269;SDS011;42176;43.240;27.880;2023-11-22T05:35:43;12.27;;;6.63;;
56269;SDS011;42176;43.240;27.880;2023-11-22T05:37:44;12.47;;;6.50;;
56269;SDS011;42176;43.240;27.880;2023-11-22T05:39:44;13.27;;;6.20;;
56269;SDS011;42176;43.240;27.880;2023-11-22T05:41:45;16.00;;;5.67;;
56269;SDS011;42176;43.240;27.880;2023-11-22T05:43:46;10.90;;;6.37;;
56269;SDS011;42176;43.240;27.880;2023-11-22T05:45:46;9.40;;;5.50;;
56269;SDS011;42176;43.240;27.880;2023-11-22T05:47:49;12.38;;;5.70;;
56269;SDS011;42176;43.240;27.880;2023-11-22T05:49:50;12.07;;;7.03;;
56269;SDS011;42176;43.240;27.880;2023-11-22T05:51:50;11.77;;;7.27;;
56269;SDS011;42176;43.240;27.880;2023-11-22T05:53:51;17.30;;;7.53;;
56269;SDS011;42176;43.240;27.880;2023-11-22T05:55:51;10.23;;;6.67;;
56269;SDS011;42176;43.240;27.880;2023-11-22T05:57:52;12.82;;;8.05;;
56269;SDS011;42176;43.240;27.880;2023-11-22T05:59:53;11.77;;;6.10;;
56269;SDS011;42176;43.240;27.880;2023-11-22T06:01:53;9.37;;;6.57;;
56269;SDS011;42176;43.240;27.880;2023-11-22T06:03:54;14.43;;;7.60;;
56269;SDS011;42176;43.240;27.880;2023-11-22T06:05:54;15.50;;;5.57;;
56269;SDS011;42176;43.240;27.880;2023-11-22T06:07:57;13.27;;;6.68;;
56269;SDS011;42176;43.240;27.880;2023-11-22T06:09:59;8.63;;;5.60;;
56269;SDS011;42176;43.240;27.880;2023-11-22T06:12:01;11.02;;;6.50;;
56269;SDS011;42176;43.240;27.880;2023-11-22T06:14:01;20.43;;;8.33;;
56269;SDS011;42176;43.240;27.880;2023-11-22T06:16:02;13.60;;;7.60;;
56269;SDS011;42176;43.240;27.880;2023-11-22T06:18:03;14.90;;;8.23;;
56269;SDS011;42176;43.240;27.880;2023-11-22T06:20:04;32.00;;;8.90;;
56269;SDS011;42176;43.240;27.880;2023-11-22T06:22:05;8.82;;;5.68;;
56269;SDS011;42176;43.240;27.880;2023-11-22T06:24:07;10.18;;;7.47;;
56269;SDS011;42176;43.240;27.880;2023-11-22T06:26:09;16.85;;;8.20;;
56269;SDS011;42176;43.240;27.880;2023-11-22T06:28:09;22.60;;;9.80;;
56269;SDS011;42176;43.240;27.880;2023-11-22T06:30:10;23.43;;;11.00;;
56269;SDS011;42176;43.240;27.880;2023-11-22T06:32:11;31.93;;;10.97;;
56269;SDS011;42176;43.240;27.880;2023-11-22T06:34:11;20.40;;;11.80;;
56269;SDS011;42176;43.240;27.880;2023-11-22T06:36:12;19.80;;;10.80;;
56269;SDS011;42176;43.240;27.880;2023-11-22T06:40:14;24.25;;;9.73;;
56269;SDS011;42176;43.240;27.880;2023-11-22T06:42:17;21.23;;;11.32;;
56269;SDS011;42176;43.240;27.880;2023-11-22T06:44:19;29.77;;;12.93;;
56269;SDS011;42176;43.240;27.880;2023-11-22T06:46:20;22.07;;;12.03;;
56269;SDS011;42176;43.240;27.880;2023-11-22T06:48:20;25.23;;;10.90;;
56269;SDS011;42176;43.240;27.880;2023-11-22T06:50:21;30.23;;;13.07;;
56269;SDS011;42176;43.240;27.880;2023-11-22T06:52:21;36.37;;;13.20;;
56269;SDS011;42176;43.240;27.880;2023-11-22T06:54:22;23.10;;;9.90;;
56269;SDS011;42176;43.240;27.880;2023-11-22T06:56:22;31.53;;;12.53;;
56269;SDS011;42176;43.240;27.880;2023-11-22T06:58:23;19.07;;;11.50;;
56269;SDS011;42176;43.240;27.880;2023-11-22T07:00:24;38.17;;;15.75;;
56269;SDS011;42176;43.240;27.880;2023-11-22T07:02:27;27.92;;;14.38;;
56269;SDS011;42176;43.240;27.880;2023-11-22T07:04:28;23.90;;;12.67;;
56269;SDS011;42176;43.240;27.880;2023-11-22T07:06:29;28.05;;;13.07;;
56269;SDS011;42176;43.240;27.880;2023-11-22T07:08:29;22.27;;;13.00;;
56269;SDS011;42176;43.240;27.880;2023-11-22T07:10:30;28.70;;;13.52;;
56269;SDS011;42176;43.240;27.880;2023-11-22T07:12:34;24.75;;;10.57;;
56269;SDS011;42176;43.240;27.880;2023-11-22T07:14:34;19.47;;;11.67;;
56269;SDS011;42176;43.240;27.880;2023-11-22T07:16:35;22.83;;;10.43;;
56269;SDS011;42176;43.240;27.880;2023-11-22T07:18:35;19.67;;;10.53;;
56269;SDS011;42176;43.240;27.880;2023-11-22T07:20:37;19.50;;;10.45;;
56269;SDS011;42176;43.240;27.880;2023-11-22T07:22:39;24.65;;;11.70;;
56269;SDS011;42176;43.240;27.880;2023-11-22T07:24:43;8.73;;;4.22;;
56269;SDS011;42176;43.240;27.880;2023-11-22T07:26:44;8.60;;;4.97;;
56269;SDS011;42176;43.240;27.880;2023-11-22T07:28:44;10.10;;;4.87;;
56269;SDS011;42176;43.240;27.880;2023-11-22T07:30:45;3.57;;;2.60;;
56269;SDS011;42176;43.240;27.880;2023-11-22T07:32:51;4.20;;;3.03;;
56269;SDS011;42176;43.240;27.880;2023-11-22T07:34:52;8.80;;;3.30;;
56269;SDS011;42176;43.240;27.880;2023-11-22T07:36:55;5.60;;;4.05;;
56269;SDS011;42176;43.240;27.880;2023-11-22T07:38:56;8.80;;;4.23;;
56269;SDS011;42176;43.240;27.880;2023-11-22T07:40:57;6.57;;;3.93;;
56269;SDS011;42176;43.240;27.880;2023-11-22T07:42:58;6.47;;;2.30;;
56269;SDS011;42176;43.240;27.880;2023-11-22T07:44:58;9.87;;;3.27;;
56269;SDS011;42176;43.240;27.880;2023-11-22T07:46:59;7.57;;;4.07;;
56269;SDS011;42176;43.240;27.880;2023-11-22T07:49:00;9.13;;;4.25;;
56269;SDS011;42176;43.240;27.880;2023-11-22T07:51:01;6.53;;;4.37;;
56269;SDS011;42176;43.240;27.880;2023-11-22T07:53:01;5.63;;;4.23;;
56269;SDS011;42176;43.240;27.880;2023-11-22T07:55:04;4.35;;;3.28;;
56269;SDS011;42176;43.240;27.880;2023-11-22T07:57:08;8.68;;;3.80;;
56269;SDS011;42176;43.240;27.880;2023-11-22T07:59:11;4.30;;;2.87;;
56269;SDS011;42176;43.240;27.880;2023-11-22T08:01:12;3.25;;;2.25;;
56269;SDS011;42176;43.240;27.880;2023-11-22T08:05:18;5.28;;;3.20;;
56269;SDS011;42176;43.240;27.880;2023-11-22T08:07:18;6.23;;;4.53;;
56269;SDS011;42176;43.240;27.880;2023-11-22T08:09:21;6.78;;;3.97;;
56269;SDS011;42176;43.240;27.880;2023-11-22T08:11:22;6.50;;;3.80;;
56269;SDS011;42176;43.240;27.880;2023-11-22T08:13:23;5.60;;;3.80;;
56269;SDS011;42176;43.240;27.880;2023-11-22T08:15:23;6.67;;;3.37;;
56269;SDS011;42176;43.240;27.880;2023-11-22T08:17:24;9.43;;;3.73;;
56269;SDS011;42176;43.240;27.880;2023-11-22T08:19:24;4.90;;;2.43;;
56269;SDS011;42176;43.240;27.880;2023-11-22T08:21:25;13.20;;;4.57;;
56269;SDS011;42176;43.240;27.880;2023-11-22T08:23:25;7.37;;;3.27;;
56269;SDS011;42176;43.240;27.880;2023-11-22T08:25:32;4.15;;;3.00;;
56269;SDS011;42176;43.240;27.880;2023-11-22T08:27:32;5.00;;;3.17;;
56269;SDS011;42176;43.240;27.880;2023-11-22T08:29:33;5.17;;;3.60;;
56269;SDS011;42176;43.240;27.880;2023-11-22T08:31:33;8.33;;;3.23;;
56269;SDS011;42176;43.240;27.880;2023-11-22T08:33:37;5.22;;;3.55;;
56269;SDS011;42176;43.240;27.880;2023-11-22T08:35:38;6.70;;;3.60;;
56269;SDS011;42176;43.240;27.880;2023-11-22T08:37:39;12.00;;;3.90;;
56269;SDS011;42176;43.240;27.880;2023-11-22T08:39:41;6.65;;;4.80;;
56269;SDS011;42176;43.240;27.880;2023-11-22T08:41:42;8.07;;;3.67;;
56269;SDS011;42176;43.240;27.880;2023-11-22T08:43:42;2.47;;;1.87;;
56269;SDS011;42176;43.240;27.880;2023-11-22T08:45:43;2.67;;;2.23;;
56269;SDS011;42176;43.240;27.880;2023-11-22T08:47:44;6.93;;;4.22;;
56269;SDS011;42176;43.240;27.880;2023-11-22T08:49:45;4.75;;;3.35;;
56269;SDS011;42176;43.240;27.880;2023-11-22T08:51:48;5.57;;;3.72;;
56269;SDS011;42176;43.240;27.880;2023-11-22T08:53:48;9.00;;;3.80;;
56269;SDS011;42176;43.240;27.880;2023-11-22T08:55:49;13.40;;;2.10;;
56269;SDS011;42176;43.240;27.880;2023-11-22T08:57:50;2.13;;;1.77;;
56269;SDS011;42176;43.240;27.880;2023-11-22T08:59:51;11.02;;;3.90;;
56269;SDS011;42176;43.240;27.880;2023-11-22T09:01:51;9.00;;;3.57;;
56269;SDS011;42176;43.240;27.880;2023-11-22T09:03:52;14.33;;;7.37;;
56269;SDS011;42176;43.240;27.880;2023-11-22T09:05:53;18.00;;;9.23;;
56269;SDS011;42176;43.240;27.880;2023-11-22T09:07:54;13.75;;;8.32;;
56269;SDS011;42176;43.240;27.880;2023-11-22T09:09:55;7.60;;;4.45;;
56269;SDS011;42176;43.240;27.880;2023-11-22T09:11:58;12.77;;;5.03;;
56269;SDS011;42176;43.240;27.880;2023-11-22T09:13:59;21.53;;;8.63;;
56269;SDS011;42176;43.240;27.880;2023-11-22T09:18:01;2.97;;;2.20;;
56269;SDS011;42176;43.240;27.880;2023-11-22T09:20:01;5.63;;;4.13;;
56269;SDS011;42176;43.240;27.880;2023-11-22T09:22:03;15.90;;;6.80;;
56269;SDS011;42176;43.240;27.880;2023-11-22T09:24:06;16.98;;;6.70;;
56269;SDS011;42176;43.240;27.880;2023-11-22T09:26:07;12.50;;;5.90;;
56269;SDS011;42176;43.240;27.880;2023-11-22T09:28:07;7.68;;;4.43;;
56269;SDS011;42176;43.240;27.880;2023-11-22T09:30:09;8.20;;;4.40;;
56269;SDS011;42176;43.240;27.880;2023-11-22T09:32:18;8.60;;;4.00;;
56269;SDS011;42176;43.240;27.880;2023-11-22T09:34:18;6.27;;;4.40;;
56269;SDS011;42176;43.240;27.880;2023-11-22T09:36:20;6.82;;;4.88;;
56269;SDS011;42176;43.240;27.880;2023-11-22T09:38:21;7.05;;;4.38;;
56269;SDS011;42176;43.240;27.880;2023-11-22T09:40:22;12.63;;;4.47;;
56269;SDS011;42176;43.240;27.880;2023-11-22T09:42:22;3.67;;;3.30;;
56269;SDS011;42176;43.240;27.880;2023-11-22T09:44:24;5.60;;;3.72;;
56269;SDS011;42176;43.240;27.880;2023-11-22T09:46:24;10.17;;;5.63;;
56269;SDS011;42176;43.240;27.880;2023-11-22T09:48:27;9.82;;;5.93;;
56269;SDS011;42176;43.240;27.880;2023-11-22T09:50:42;9.18;;;5.80;;
56269;SDS011;42176;43.240;27.880;2023-11-22T09:52:49;10.30;;;5.40;;
56269;SDS011;42176;43.240;27.880;2023-11-22T09:54:54;9.07;;;5.45;;
56269;SDS011;42176;43.240;27.880;2023-11-22T09:56:56;8.95;;;5.40;;
56269;SDS011;42176;43.240;27.880;2023-11-22T09:59:01;15.20;;;5.80;;
56269;SDS011;42176;43.240;27.880;2023-11-22T10:01:03;12.05;;;6.00;;
56269;SDS011;42176;43.240;27.880;2023-11-22T10:05:06;9.63;;;5.22;;
56269;SDS011;42176;43.240;27.880;2023-11-22T10:07:08;7.32;;;5.00;;
56269;SDS011;42176;43.240;27.880;2023-11-22T10:09:10;9.55;;;5.53;;
56269;SDS011;42176;43.240;27.880;2023-11-22T10:11:16;9.25;;;6.22;;
56269;SDS011;42176;43.240;27.880;2023-11-22T10:13:17;10.52;;;5.68;;
56269;SDS011;42176;43.240;27.880;2023-11-22T10:15:21;7.93;;;4.28;;
56269;SDS011;42176;43.240;27.880;2023-11-22T10:17:22;6.10;;;4.65;;
56269;SDS011;42176;43.240;27.880;2023-11-22T10:19:23;11.63;;;7.00;;
56269;SDS011;42176;43.240;27.880;2023-11-22T10:21:26;10.48;;;6.65;;
56269;SDS011;42176;43.240;27.880;2023-11-22T10:23:32;9.88;;;6.30;;
56269;SDS011;42176;43.240;27.880;2023-11-22T10:25:33;9.90;;;5.63;;
56269;SDS011;42176;43.240;27.880;2023-11-22T10:27:33;11.93;;;7.10;;
56269;SDS011;42176;43.240;27.880;2023-11-22T10:29:34;8.97;;;6.53;;
56269;SDS011;42176;43.240;27.880;2023-11-22T10:31:36;15.52;;;8.23;;
56269;SDS011;42176;43.240;27.880;2023-11-22T10:33:39;11.98;;;7.30;;
56269;SDS011;42176;43.240;27.880;2023-11-22T10:35:42;19.70;;;9.18;;
56269;SDS011;42176;43.240;27.880;2023-11-22T10:37:43;14.15;;;7.90;;
56269;SDS011;42176;43.240;27.880;2023-11-22T10:39:48;18.83;;;8.67;;
56269;SDS011;42176;43.240;27.880;2023-11-22T10:41:51;16.50;;;7.88;;
56269;SDS011;42176;43.240;27.880;2023-11-22T10:43:52;13.63;;;7.77;;
56269;SDS011;42176;43.240;27.880;2023-11-22T10:45:55;6.43;;;3.85;;
56269;SDS011;42176;43.240;27.880;2023-11-22T10:47:57;9.98;;;6.47;;
56269;SDS011;42176;43.240;27.880;2023-11-22T10:50:00;7.97;;;5.57;;
56269;SDS011;42176;43.240;27.880;2023-11-22T10:52:02;13.43;;;7.68;;
56269;SDS011;42176;43.240;27.880;2023-11-22T10:54:07;11.05;;;5.47;;
56269;SDS011;42176;43.240;27.880;2023-11-22T10:56:13;11.00;;;5.75;;
56269;SDS011;42176;43.240;27.880;2023-11-22T10:58:15;8.80;;;4.82;;
56269;SDS011;42176;43.240;27.880;2023-11-22T11:00:19;5.43;;;3.33;;
56269;SDS011;42176;43.240;27.880;2023-11-22T11:02:23;9.23;;;6.30;;
56269;SDS011;42176;43.240;27.880;2023-11-22T11:06:42;11.10;;;6.05;;
56269;SDS011;42176;43.240;27.880;2023-11-22T11:08:46;9.82;;;5.32;;
56269;SDS011;42176;43.240;27.880;2023-11-22T11:10:49;10.63;;;4.47;;
56269;SDS011;42176;43.240;27.880;2023-11-22T11:12:50;11.00;;;5.07;;
56269;SDS011;42176;43.240;27.880;2023-11-22T11:14:50;5.20;;;3.63;;
56269;SDS011;42176;43.240;27.880;2023-11-22T11:16:51;3.83;;;3.03;;
56269;SDS011;42176;43.240;27.880;2023-11-22T11:18:54;5.13;;;3.28;;
56269;SDS011;42176;43.240;27.880;2023-11-22T11:20:56;5.87;;;2.97;;
56269;SDS011;42176;43.240;27.880;2023-11-22T11:22:58;6.57;;;2.85;;
56269;SDS011;42176;43.240;27.880;2023-11-22T11:25:04;4.45;;;2.78;;
56269;SDS011;42176;43.240;27.880;2023-11-22T11:27:06;5.95;;;3.20;;
56269;SDS011;42176;43.240;27.880;2023-11-22T11:29:07;4.93;;;2.58;;
56269;SDS011;42176;43.240;27.880;2023-11-22T11:31:38;5.13;;;3.33;;
56269;SDS011;42176;43.240;27.880;2023-11-22T11:35:49;8.30;;;3.70;;
56269;SDS011;42176;43.240;27.880;2023-11-22T11:37:50;10.73;;;3.08;;
56269;SDS011;42176;43.240;27.880;2023-11-22T11:39:59;19.30;;;3.83;;
56269;SDS011;42176;43.240;27.880;2023-11-22T11:42:08;5.15;;;3.33;;
56269;SDS011;42176;43.240;27.880;2023-11-22T11:44:10;3.53;;;2.75;;
56269;SDS011;42176;43.240;27.880;2023-11-22T11:46:12;3.15;;;2.40;;
56269;SDS011;42176;43.240;27.880;2023-11-22T11:48:13;5.50;;;2.80;;
56269;SDS011;42176;43.240;27.880;2023-11-22T11:50:17;7.13;;;3.28;;
56269;SDS011;42176;43.240;27.880;2023-11-22T11:52:18;5.03;;;2.70;;
56269;SDS011;42176;43.240;27.880;2023-11-22T11:54:18;5.10;;;3.43;;
56269;SDS011;42176;43.240;27.880;2023-11-22T11:56:19;3.90;;;2.70;;
56269;SDS011;42176;43.240;27.880;2023-11-22T11:58:21;11.52;;;2.72;;
56269;SDS011;42176;43.240;27.880;2023-11-22T12:00:23;3.58;;;2.55;;
56269;SDS011;42176;43.240;27.880;2023-11-22T12:02:28;5.93;;;2.63;;
56269;SDS011;42176;43.240;27.880;2023-11-22T12:04:29;4.30;;;2.07;;
56269;SDS011;42176;43.240;27.880;2023-11-22T12:06:31;4.32;;;2.13;;
56269;SDS011;42176;43.240;27.880;2023-11-22T12:08:36;5.45;;;2.55;;
56269;SDS011;42176;43.240;27.880;2023-11-22T12:10:37;4.07;;;2.20;;
56269;SDS011;42176;43.240;27.880;2023-11-22T12:12:37;4.00;;;2.00;;
56269;SDS011;42176;43.240;27.880;2023-11-22T12:14:39;5.03;;;2.30;;
56269;SDS011;42176;43.240;27.880;2023-11-22T12:16:39;3.87;;;2.63;;
56269;SDS011;42176;43.240;27.880;2023-11-22T12:18:43;4.30;;;1.70;;
56269;SDS011;42176;43.240;27.880;2023-11-22T12:20:55;3.90;;;1.67;;